createdAt,value
2019-05-14T00:00:05.100Z,0.1
2019-05-14T00:00:56.005Z,0.1
2019-05-14T00:01:46.872Z,0.1
2019-05-14T00:02:37.752Z,0.1
2019-05-14T00:03:30.974Z,0.1
2019-05-14T00:04:22.107Z,0.1
2019-05-14T00:05:13.021Z,0.1
2019-05-14T00:06:03.921Z,0.1
2019-05-14T00:06:54.785Z,0.1
2019-05-14T00:07:45.656Z,0.1
2019-05-14T00:08:36.542Z,0.1
2019-05-14T00:09:27.414Z,0
2019-05-14T00:10:18.287Z,0
2019-05-14T00:11:09.155Z,0
2019-05-14T00:12:02.555Z,0
2019-05-14T00:12:53.636Z,-0.1
2019-05-14T00:13:44.510Z,-0.1
2019-05-14T00:14:39.497Z,-0.1
2019-05-14T00:15:32.182Z,-0.1
2019-05-14T00:16:24.278Z,0
2019-05-14T00:17:15.275Z,0.1
2019-05-14T00:18:06.143Z,0.1
2019-05-14T00:18:57.019Z,0.2
2019-05-14T00:19:47.888Z,0.2
2019-05-14T00:20:38.761Z,0.3
2019-05-14T00:21:31.580Z,0.3
2019-05-14T00:22:22.553Z,0.3
2019-05-14T00:23:13.422Z,0.3
2019-05-14T00:24:04.298Z,0.3
2019-05-14T00:24:55.187Z,0.3
2019-05-14T00:25:46.056Z,0.3
2019-05-14T00:26:36.969Z,0.3
2019-05-14T00:27:27.837Z,0.3
2019-05-14T00:28:20.757Z,0.4
2019-05-14T00:29:11.958Z,0.4
2019-05-14T00:30:02.823Z,0.4
2019-05-14T00:30:53.692Z,0.3
2019-05-14T00:31:44.616Z,0.4
2019-05-14T00:32:35.494Z,0.3
2019-05-14T00:33:26.358Z,0.3
2019-05-14T00:34:17.235Z,0.3
2019-05-14T00:35:08.103Z,0.3
2019-05-14T00:35:58.974Z,0.3
2019-05-14T00:36:52.136Z,0.2
2019-05-14T00:37:43.317Z,0.2
2019-05-14T00:38:34.188Z,0.2
2019-05-14T00:39:25.090Z,0.2
2019-05-14T00:40:15.954Z,0.2
2019-05-14T00:41:11.828Z,0.1
2019-05-14T00:42:02.729Z,0.1
2019-05-14T00:42:53.597Z,0.1
2019-05-14T00:43:44.471Z,0.1
2019-05-14T00:44:35.347Z,0
2019-05-14T00:45:26.214Z,0
2019-05-14T00:46:17.081Z,0
2019-05-14T00:47:07.962Z,0
2019-05-14T00:47:58.859Z,0
2019-05-14T00:48:51.395Z,0
2019-05-14T00:49:42.716Z,0
2019-05-14T00:50:33.604Z,0
2019-05-14T00:51:24.475Z,-0.1
2019-05-14T00:52:15.373Z,-0.1
2019-05-14T00:53:06.260Z,-0.1
2019-05-14T00:53:57.128Z,-0.3
2019-05-14T00:54:48.001Z,-0.3
2019-05-14T00:55:38.867Z,-0.4
2019-05-14T00:56:31.967Z,-0.4
2019-05-14T00:57:23.070Z,-0.4
2019-05-14T00:58:13.950Z,-0.4
2019-05-14T00:59:04.814Z,-0.6
2019-05-14T00:59:55.689Z,-0.6
2019-05-14T01:00:46.556Z,-0.6
2019-05-14T01:01:37.438Z,-0.5
2019-05-14T01:02:28.340Z,-0.5
2019-05-14T01:03:21.568Z,-0.4
2019-05-14T01:04:12.574Z,-0.4
2019-05-14T01:05:03.443Z,-0.4
2019-05-14T01:05:54.315Z,-0.4
2019-05-14T01:06:45.184Z,-0.6
2019-05-14T01:07:36.092Z,-0.7
2019-05-14T01:08:26.967Z,-0.8
2019-05-14T01:09:17.838Z,-0.8
2019-05-14T01:10:08.709Z,-0.9
2019-05-14T01:11:01.562Z,-0.8
2019-05-14T01:11:52.612Z,-0.7
2019-05-14T01:12:43.530Z,-0.7
2019-05-14T01:13:34.400Z,-0.7
2019-05-14T01:14:25.277Z,-0.7
2019-05-14T01:15:16.158Z,-0.7
2019-05-14T01:16:07.028Z,-0.7
2019-05-14T01:16:57.904Z,-0.7
2019-05-14T01:17:48.813Z,-0.8
2019-05-14T01:18:41.423Z,-0.8
2019-05-14T01:19:32.428Z,-0.8
2019-05-14T01:20:23.304Z,-0.9
2019-05-14T01:21:14.185Z,-0.9
2019-05-14T01:22:05.051Z,-0.9
2019-05-14T01:22:55.954Z,-0.9
2019-05-14T01:23:46.823Z,-1
2019-05-14T01:24:37.695Z,-1
2019-05-14T01:25:28.568Z,-1.1
2019-05-14T01:26:21.578Z,-1.1
2019-05-14T01:27:12.734Z,-1.2
2019-05-14T01:28:03.666Z,-1.3
2019-05-14T01:28:54.532Z,-1.3
2019-05-14T01:29:45.410Z,-1.3
2019-05-14T01:30:36.292Z,-1.3
2019-05-14T01:31:27.166Z,-1.4
2019-05-14T01:32:18.040Z,-1.4
2019-05-14T01:33:08.935Z,-1.4
2019-05-14T01:34:01.968Z,-1.4
2019-05-14T01:34:53.048Z,-1.4
2019-05-14T01:35:43.926Z,-1.4
2019-05-14T01:36:34.809Z,-1.4
2019-05-14T01:37:25.676Z,-1.4
2019-05-14T01:38:16.576Z,-1.4
2019-05-14T01:39:07.443Z,-1.4
2019-05-14T01:39:58.310Z,-1.4
2019-05-14T01:40:49.187Z,-1.4
2019-05-14T01:41:41.853Z,-1.4
2019-05-14T01:42:33.114Z,-1.5
2019-05-14T01:43:24.023Z,-1.6
2019-05-14T01:44:14.898Z,-1.6
2019-05-14T01:45:05.780Z,-1.6
2019-05-14T01:45:56.666Z,-1.6
2019-05-14T01:46:47.555Z,-1.6
2019-05-14T01:47:38.424Z,-1.7
2019-05-14T01:48:31.256Z,-1.7
2019-05-14T01:49:22.248Z,-1.7
2019-05-14T01:50:13.116Z,-1.7
2019-05-14T01:51:03.993Z,-1.7
2019-05-14T01:51:54.860Z,-1.6
2019-05-14T01:52:45.737Z,-1.6
2019-05-14T01:53:36.639Z,-1.7
2019-05-14T01:54:27.508Z,-1.6
2019-05-14T01:55:18.380Z,-1.7
2019-05-14T01:56:09.250Z,-1.8
2019-05-14T01:57:02.063Z,-1.8
2019-05-14T01:57:53.101Z,-1.8
2019-05-14T01:58:44.002Z,-1.8
2019-05-14T01:59:35.109Z,-1.8
2019-05-14T02:00:25.976Z,-1.8
2019-05-14T02:01:16.851Z,-1.8
2019-05-14T02:02:07.717Z,-1.8
2019-05-14T02:02:58.587Z,-1.8
2019-05-14T02:03:51.600Z,-1.8
2019-05-14T02:04:42.981Z,-1.8
2019-05-14T02:05:33.898Z,-1.8
2019-05-14T02:06:24.776Z,-1.8
2019-05-14T02:07:16.179Z,-1.8
2019-05-14T02:08:07.108Z,-1.8
2019-05-14T02:08:58.013Z,-1.8
2019-05-14T02:09:48.884Z,-1.8
2019-05-14T02:10:41.788Z,-1.8
2019-05-14T02:11:32.810Z,-1.8
2019-05-14T02:12:23.675Z,-1.8
2019-05-14T02:13:14.550Z,-1.8
2019-05-14T02:14:05.463Z,-1.8
2019-05-14T02:14:56.335Z,-1.8
2019-05-14T02:15:47.239Z,-1.8
2019-05-14T02:16:38.142Z,-1.8
2019-05-14T02:17:29.009Z,-1.8
2019-05-14T02:18:21.702Z,-1.9
2019-05-14T02:19:12.750Z,-1.9
2019-05-14T02:20:03.621Z,-1.9
2019-05-14T02:20:54.496Z,-1.9
2019-05-14T02:21:45.369Z,-1.9
2019-05-14T02:22:36.236Z,-1.9
2019-05-14T02:23:27.103Z,-1.9
2019-05-14T02:24:18.020Z,-1.9
2019-05-14T02:25:08.897Z,-1.9
2019-05-14T02:25:59.766Z,-1.9
2019-05-14T02:26:51.534Z,-1.9
2019-05-14T02:27:42.525Z,-1.9
2019-05-14T02:28:33.398Z,-1.9
2019-05-14T02:29:24.306Z,-2
2019-05-14T02:30:15.182Z,-2.1
2019-05-14T02:31:09.117Z,-2.1
2019-05-14T02:32:00.238Z,-2.1
2019-05-14T02:32:51.109Z,-2.1
2019-05-14T02:33:41.987Z,-2.2
2019-05-14T02:34:32.887Z,-2.2
2019-05-14T02:35:23.766Z,-2.2
2019-05-14T02:36:14.637Z,-2.2
2019-05-14T02:37:08.947Z,-2.2
2019-05-14T02:37:59.972Z,-2.2
2019-05-14T02:38:50.911Z,-2.2
2019-05-14T02:39:41.812Z,-2.2
2019-05-14T02:40:32.707Z,-2.2
2019-05-14T02:41:23.576Z,-2.2
2019-05-14T02:42:14.456Z,-2.1
2019-05-14T02:43:05.328Z,-2.1
2019-05-14T02:43:59.150Z,-2.1
2019-05-14T02:44:50.212Z,-2.1
2019-05-14T02:46:00.389Z,-2.1
2019-05-14T02:46:39.998Z,-2.1
2019-05-14T02:47:31.252Z,-2.1
2019-05-14T02:48:22.129Z,-2.1
2019-05-14T02:49:12.999Z,-2.1
2019-05-14T02:50:03.905Z,-2.1
2019-05-14T02:50:54.783Z,-2
2019-05-14T02:51:45.659Z,-1.9
2019-05-14T02:52:39.845Z,-1.9
2019-05-14T02:53:30.959Z,-2
2019-05-14T02:54:21.834Z,-2
2019-05-14T02:55:12.733Z,-2
2019-05-14T02:56:03.612Z,-2
2019-05-14T02:56:54.487Z,-2
2019-05-14T02:57:45.357Z,-2
2019-05-14T02:58:36.230Z,-2
2019-05-14T02:59:30.172Z,-1.9
2019-05-14T03:00:21.322Z,-1.9
2019-05-14T03:01:12.203Z,-1.9
2019-05-14T03:02:03.074Z,-1.9
2019-05-14T03:02:53.952Z,-1.9
2019-05-14T03:03:44.823Z,-1.9
2019-05-14T03:04:35.691Z,-1.8
2019-05-14T03:05:29.302Z,-1.8
2019-05-14T03:06:20.406Z,-1.8
2019-05-14T03:07:11.403Z,-1.7
2019-05-14T03:08:02.280Z,-1.7
2019-05-14T03:08:53.156Z,-1.7
2019-05-14T03:09:44.034Z,-1.8
2019-05-14T03:10:34.938Z,-1.8
2019-05-14T03:11:29.407Z,-1.8
2019-05-14T03:12:20.441Z,-1.8
2019-05-14T03:13:11.312Z,-1.8
2019-05-14T03:14:02.186Z,-1.9
2019-05-14T03:14:53.062Z,-1.8
2019-05-14T03:15:43.969Z,-1.8
2019-05-14T03:16:35.731Z,-1.8
2019-05-14T03:17:29.740Z,-1.8
2019-05-14T03:18:20.812Z,-1.7
2019-05-14T03:19:11.687Z,-1.7
2019-05-14T03:20:02.560Z,-1.7
2019-05-14T03:20:53.462Z,-1.7
2019-05-14T03:21:44.346Z,-1.8
2019-05-14T03:22:45.348Z,-1.8
2019-05-14T03:23:31.064Z,-1.7
2019-05-14T03:24:21.938Z,-1.7
2019-05-14T03:25:12.818Z,-1.6
2019-05-14T03:26:03.715Z,-1.6
2019-05-14T03:26:54.619Z,-1.6
2019-05-14T03:27:45.510Z,-1.6
2019-05-14T03:28:39.763Z,-1.5
2019-05-14T03:29:31.148Z,-1.4
2019-05-14T03:30:23.127Z,-1.4
2019-05-14T03:31:14.308Z,-1.4
2019-05-14T03:32:05.209Z,-1.3
2019-05-14T03:33:01.861Z,-1.3
2019-05-14T03:33:53.108Z,-1.2
2019-05-14T03:34:44.276Z,-1.2
2019-05-14T03:35:41.970Z,-1.1
2019-05-14T03:36:34.324Z,-1.1
2019-05-14T03:37:30.573Z,-1.1
2019-05-14T03:38:21.721Z,-1
2019-05-14T03:39:12.596Z,-1
2019-05-14T03:40:03.471Z,-0.9
2019-05-14T03:40:54.374Z,-0.9
2019-05-14T03:41:45.250Z,-0.9
2019-05-14T03:42:36.124Z,-0.8
2019-05-14T03:43:29.529Z,-0.8
2019-05-14T03:44:20.612Z,-0.8
2019-05-14T03:45:11.485Z,-0.7
2019-05-14T03:46:02.398Z,-0.7
2019-05-14T03:46:55.392Z,-0.7
2019-05-14T03:47:50.331Z,-0.7
2019-05-14T03:48:41.576Z,-0.6
2019-05-14T03:49:32.452Z,-0.6
2019-05-14T03:50:23.330Z,-0.6
2019-05-14T03:51:14.250Z,-0.6
2019-05-14T03:52:05.122Z,-0.6
2019-05-14T03:52:59.100Z,-0.6
2019-05-14T03:54:00.899Z,-0.6
2019-05-14T03:54:49.410Z,-0.6
2019-05-14T03:55:40.739Z,-0.6
2019-05-14T03:56:31.813Z,-0.6
2019-05-14T03:57:22.682Z,-0.6
2019-05-14T03:58:13.549Z,-0.6
2019-05-14T03:59:04.604Z,-0.5
2019-05-14T03:59:55.514Z,-0.4
2019-05-14T04:00:49.419Z,-0.4
2019-05-14T04:01:40.827Z,-0.3
2019-05-14T04:02:31.706Z,-0.2
2019-05-14T04:03:22.582Z,-0.1
2019-05-14T04:04:13.474Z,-0.1
2019-05-14T04:05:04.347Z,0.1
2019-05-14T04:05:55.223Z,0.1
2019-05-14T04:06:49.273Z,0.1
2019-05-14T04:07:40.490Z,0.2
2019-05-14T04:08:31.406Z,0.3
2019-05-14T04:09:22.287Z,0.3
2019-05-14T04:10:13.157Z,0.4
2019-05-14T04:11:04.102Z,0.4
2019-05-14T04:11:54.977Z,0.4
2019-05-14T04:12:48.729Z,0.5
2019-05-14T04:13:40.772Z,0.6
2019-05-14T04:14:31.766Z,0.6
2019-05-14T04:15:22.640Z,0.6
2019-05-14T04:16:13.677Z,0.7
2019-05-14T04:17:09.462Z,0.7
2019-05-14T04:18:00.617Z,0.8
2019-05-14T04:18:51.590Z,0.8
2019-05-14T04:19:42.549Z,0.8
2019-05-14T04:20:39.217Z,0.8
2019-05-14T04:21:30.261Z,0.9
2019-05-14T04:22:21.148Z,0.9
2019-05-14T04:23:12.045Z,0.9
2019-05-14T04:24:02.924Z,0.9
2019-05-14T04:24:53.802Z,0.9
2019-05-14T04:25:44.685Z,0.9
2019-05-14T04:26:52.927Z,0.9
2019-05-14T04:27:31.475Z,0.9
2019-05-14T04:28:22.428Z,0.9
2019-05-14T04:29:13.310Z,0.9
2019-05-14T04:30:04.179Z,0.9
2019-05-14T04:30:55.052Z,0.9
2019-05-14T04:31:45.958Z,1
2019-05-14T04:32:39.413Z,1
2019-05-14T04:33:30.777Z,1.1
2019-05-14T04:34:21.687Z,1.1
2019-05-14T04:35:12.583Z,1.2
2019-05-14T04:36:03.474Z,1.3
2019-05-14T04:36:54.405Z,1.3
2019-05-14T04:37:45.278Z,1.4
2019-05-14T04:38:36.156Z,1.4
2019-05-14T04:39:30.325Z,1.5
2019-05-14T04:40:21.592Z,1.6
2019-05-14T04:41:12.463Z,1.6
2019-05-14T04:42:03.390Z,1.8
2019-05-14T04:42:54.275Z,1.8
2019-05-14T04:43:45.176Z,1.9
2019-05-14T04:44:36.053Z,2.1
2019-05-14T04:45:29.533Z,2.1
2019-05-14T04:46:20.650Z,2.4
2019-05-14T04:47:27.196Z,2.6
2019-05-14T04:48:23.821Z,2.7
2019-05-14T04:49:03.221Z,3
2019-05-14T04:49:54.139Z,3.2
2019-05-14T04:50:45.274Z,3.4
2019-05-14T04:51:39.272Z,3.6
2019-05-14T04:52:30.537Z,3.8
2019-05-14T04:53:21.429Z,3.9
2019-05-14T04:54:12.320Z,4
2019-05-14T04:55:03.236Z,4.2
2019-05-14T04:55:54.112Z,4.4
2019-05-14T04:56:44.996Z,4.7
2019-05-14T04:57:38.778Z,4.7
2019-05-14T04:58:30.226Z,4.9
2019-05-14T04:59:21.133Z,5
2019-05-14T05:00:12.760Z,5.1
2019-05-14T05:01:03.735Z,5.2
2019-05-14T05:01:54.610Z,5.2
2019-05-14T05:02:45.518Z,5.3
2019-05-14T05:03:39.572Z,5.4
2019-05-14T05:04:30.817Z,5.5
2019-05-14T05:05:21.691Z,5.5
2019-05-14T05:06:12.559Z,5.5
2019-05-14T05:07:03.427Z,5.6
2019-05-14T05:07:54.329Z,5.6
2019-05-14T05:08:45.207Z,5.7
2019-05-14T05:09:39.326Z,6.1
2019-05-14T05:10:30.593Z,6.7
2019-05-14T05:11:21.801Z,7.4
2019-05-14T05:12:12.744Z,7.4
2019-05-14T05:13:03.652Z,7.4
2019-05-14T05:13:54.523Z,7.4
2019-05-14T05:14:45.394Z,7.4
2019-05-14T05:15:36.276Z,7.4
2019-05-14T05:16:29.530Z,7.4
2019-05-14T05:17:20.548Z,7.4
2019-05-14T05:18:11.449Z,7.4
2019-05-14T05:19:02.323Z,7.4
2019-05-14T05:19:53.192Z,7.4
2019-05-14T05:20:44.058Z,7.4
2019-05-14T05:21:34.930Z,7.4
2019-05-14T05:22:25.798Z,7.4
2019-05-14T05:23:18.755Z,7.4
2019-05-14T05:24:09.804Z,7.4
2019-05-14T05:25:00.677Z,7.4
2019-05-14T05:25:51.545Z,7.4
2019-05-14T05:26:42.416Z,7.4
2019-05-14T05:27:33.287Z,7.4
2019-05-14T05:28:24.190Z,7.4
2019-05-14T05:29:15.062Z,7.4
2019-05-14T05:30:08.191Z,7.4
2019-05-14T05:30:59.305Z,7.4
2019-05-14T05:31:50.183Z,7.5
2019-05-14T05:32:41.049Z,7.5
2019-05-14T05:33:31.946Z,7.5
2019-05-14T05:34:22.820Z,7.5
2019-05-14T05:35:13.692Z,7.5
2019-05-14T05:36:04.574Z,7.5
2019-05-14T05:36:55.451Z,7.5
2019-05-14T05:37:48.777Z,7.6
2019-05-14T05:38:39.903Z,7.6
2019-05-14T05:39:30.772Z,7.6
2019-05-14T05:40:21.646Z,7.6
2019-05-14T05:41:12.517Z,7.6
2019-05-14T05:42:03.388Z,7.6
2019-05-14T05:42:54.260Z,7.6
2019-05-14T05:43:45.170Z,7.6
2019-05-14T05:44:36.038Z,7.6
2019-05-14T05:45:28.952Z,7.6
2019-05-14T05:46:19.936Z,7.6
2019-05-14T05:47:10.816Z,7.6
2019-05-14T05:48:01.962Z,7.6
2019-05-14T05:48:52.925Z,7.6
2019-05-14T05:49:43.795Z,7.6
2019-05-14T05:50:34.664Z,7.7
2019-05-14T05:51:25.545Z,7.7
2019-05-14T05:52:18.890Z,7.7
2019-05-14T05:53:09.976Z,7.7
2019-05-14T05:54:00.890Z,7.7
2019-05-14T05:54:51.765Z,7.7
2019-05-14T05:55:42.632Z,7.7
2019-05-14T05:56:33.523Z,7.7
2019-05-14T05:57:24.386Z,7.7
2019-05-14T05:58:15.271Z,7.7
2019-05-14T05:59:06.175Z,7.7
2019-05-14T05:59:58.790Z,7.7
2019-05-14T06:00:49.961Z,7.7
2019-05-14T06:01:45.940Z,7.7
2019-05-14T06:02:36.682Z,7.7
2019-05-14T06:03:29.941Z,7.7
2019-05-14T06:04:21.253Z,7.7
2019-05-14T06:05:12.119Z,7.8
2019-05-14T06:06:03.019Z,7.8
2019-05-14T06:06:53.927Z,7.8
2019-05-14T06:07:44.792Z,7.8
2019-05-14T06:08:35.655Z,7.8
2019-05-14T06:09:28.571Z,7.8
2019-05-14T06:10:19.624Z,7.9
2019-05-14T06:11:10.492Z,7.9
2019-05-14T06:12:01.374Z,7.9
2019-05-14T06:12:52.245Z,7.9
2019-05-14T06:13:43.118Z,7.9
2019-05-14T06:14:34.015Z,7.9
2019-05-14T06:15:24.878Z,7.9
2019-05-14T06:16:15.773Z,7.9
2019-05-14T06:17:08.486Z,7.9
2019-05-14T06:18:13.654Z,7.9
2019-05-14T06:18:55.402Z,7.9
2019-05-14T06:19:48.424Z,8
2019-05-14T06:20:39.447Z,8
2019-05-14T06:21:30.319Z,8
2019-05-14T06:22:21.209Z,8
2019-05-14T06:23:12.086Z,8
2019-05-14T06:24:03.155Z,8
2019-05-14T06:24:54.056Z,8.1
2019-05-14T06:25:44.927Z,8.1
2019-05-14T06:26:35.796Z,8.1
2019-05-14T06:27:28.697Z,8.1
2019-05-14T06:28:20.854Z,8.1
2019-05-14T06:29:11.979Z,8.1
2019-05-14T06:30:02.846Z,8.1
2019-05-14T06:30:53.714Z,8.1
2019-05-14T06:31:44.580Z,8.1
2019-05-14T06:32:38.399Z,8.1
2019-05-14T06:33:29.458Z,8.1
2019-05-14T06:34:20.381Z,8.2
2019-05-14T06:35:11.254Z,8.2
2019-05-14T06:36:02.134Z,8.2
2019-05-14T06:36:53.007Z,8.2
2019-05-14T06:37:43.883Z,8.2
2019-05-14T06:38:34.756Z,8.2
2019-05-14T06:39:28.104Z,8.2
2019-05-14T06:40:19.402Z,8.3
2019-05-14T06:41:10.290Z,8.3
2019-05-14T06:42:01.166Z,8.3
2019-05-14T06:42:52.049Z,8.3
2019-05-14T06:43:42.940Z,8.3
2019-05-14T06:44:33.810Z,8.3
2019-05-14T06:45:24.713Z,8.3
2019-05-14T06:46:15.579Z,8.3
2019-05-14T06:47:09.074Z,8.3
2019-05-14T06:48:00.122Z,8.3
2019-05-14T06:48:51.000Z,8.3
2019-05-14T06:49:41.870Z,8.3
2019-05-14T06:50:32.769Z,8.4
2019-05-14T06:51:23.642Z,8.4
2019-05-14T06:52:14.517Z,8.4
2019-05-14T06:53:05.387Z,8.4
2019-05-14T06:53:58.571Z,8.4
2019-05-14T06:54:49.893Z,8.4
2019-05-14T06:55:40.808Z,8.4
2019-05-14T06:56:31.687Z,8.4
2019-05-14T06:57:22.554Z,8.4
2019-05-14T06:58:13.422Z,8.4
2019-05-14T06:59:04.298Z,8.4
2019-05-14T06:59:55.164Z,8.5
2019-05-14T07:00:46.067Z,8.5
2019-05-14T07:01:38.403Z,8.5
2019-05-14T07:02:29.464Z,8.5
2019-05-14T07:03:20.340Z,8.5
2019-05-14T07:04:11.220Z,8.5
2019-05-14T07:05:02.084Z,8.6
2019-05-14T07:05:52.985Z,8.6
2019-05-14T07:06:43.855Z,8.6
2019-05-14T07:07:34.720Z,8.6
2019-05-14T07:08:28.251Z,8.6
2019-05-14T07:09:19.322Z,8.6
2019-05-14T07:10:10.194Z,8.6
2019-05-14T07:11:01.090Z,8.6
2019-05-14T07:11:51.969Z,8.6
2019-05-14T07:12:42.841Z,8.6
2019-05-14T07:13:33.710Z,8.7
2019-05-14T07:14:24.581Z,8.7
2019-05-14T07:15:15.449Z,8.7
2019-05-14T07:16:08.718Z,8.7
2019-05-14T07:16:59.775Z,8.7
2019-05-14T07:17:50.642Z,8.8
2019-05-14T07:18:48.687Z,8.8
2019-05-14T07:19:38.452Z,8.8
2019-05-14T07:20:29.528Z,8.8
2019-05-14T07:21:20.403Z,8.8
2019-05-14T07:22:11.281Z,8.8
2019-05-14T07:23:02.155Z,8.8
2019-05-14T07:23:53.034Z,8.8
2019-05-14T07:24:43.902Z,8.8
2019-05-14T07:25:34.797Z,8.8
2019-05-14T07:26:25.661Z,8.8
2019-05-14T07:27:19.084Z,8.9
2019-05-14T07:28:10.033Z,8.9
2019-05-14T07:29:00.913Z,8.9
2019-05-14T07:29:51.783Z,8.9
2019-05-14T07:30:42.685Z,8.9
2019-05-14T07:31:33.561Z,8.9
2019-05-14T07:32:24.534Z,8.9
2019-05-14T07:33:15.467Z,8.9
2019-05-14T07:34:08.667Z,8.9
2019-05-14T07:34:59.769Z,8.9
2019-05-14T07:35:50.706Z,8.9
2019-05-14T07:36:41.571Z,9
2019-05-14T07:37:32.441Z,9
2019-05-14T07:38:23.313Z,9
2019-05-14T07:39:14.186Z,9
2019-05-14T07:40:05.049Z,9.1
2019-05-14T07:40:58.296Z,9.1
2019-05-14T07:41:49.384Z,9.1
2019-05-14T07:42:40.248Z,9.1
2019-05-14T07:43:31.118Z,9.1
2019-05-14T07:44:21.984Z,9.1
2019-05-14T07:45:12.853Z,9.1
2019-05-14T07:46:03.775Z,9.1
2019-05-14T07:46:54.649Z,9.1
2019-05-14T07:47:45.517Z,9.1
2019-05-14T07:48:38.939Z,9.2
2019-05-14T07:49:30.052Z,9.2
2019-05-14T07:50:20.918Z,9.2
2019-05-14T07:51:11.843Z,9.2
2019-05-14T07:52:02.726Z,9.2
2019-05-14T07:52:53.606Z,9.3
2019-05-14T07:53:44.471Z,9.3
2019-05-14T07:54:35.341Z,9.3
2019-05-14T07:55:26.212Z,9.3
2019-05-14T07:56:18.651Z,9.3
2019-05-14T07:57:09.765Z,9.3
2019-05-14T07:58:00.641Z,9.3
2019-05-14T07:58:51.519Z,9.3
2019-05-14T07:59:48.353Z,9.3
2019-05-14T08:00:40.143Z,9.3
2019-05-14T08:01:31.304Z,9.3
2019-05-14T08:02:22.172Z,9.3
2019-05-14T08:03:13.044Z,9.3
2019-05-14T08:04:03.933Z,9.3
2019-05-14T08:04:54.804Z,9.4
2019-05-14T08:05:48.113Z,9.3
2019-05-14T08:06:39.461Z,9.4
2019-05-14T08:07:30.459Z,9.4
2019-05-14T08:08:21.327Z,9.4
2019-05-14T08:09:12.201Z,9.4
2019-05-14T08:10:03.071Z,9.4
2019-05-14T08:10:53.935Z,9.4
2019-05-14T08:11:44.807Z,9.4
2019-05-14T08:12:35.704Z,9.4
2019-05-14T08:13:28.191Z,9.4
2019-05-14T08:14:19.240Z,9.4
2019-05-14T08:15:17.582Z,9.4
2019-05-14T08:16:05.927Z,9.4
2019-05-14T08:16:59.295Z,9.4
2019-05-14T08:17:50.370Z,9.5
2019-05-14T08:18:41.244Z,9.5
2019-05-14T08:19:34.427Z,9.5
2019-05-14T08:20:25.500Z,9.5
2019-05-14T08:21:19.026Z,9.5
2019-05-14T08:22:10.142Z,9.5
2019-05-14T08:23:01.044Z,9.5
2019-05-14T08:23:51.912Z,9.5
2019-05-14T08:24:42.788Z,9.5
2019-05-14T08:25:33.664Z,9.6
2019-05-14T08:26:24.532Z,9.6
2019-05-14T08:27:15.405Z,9.6
2019-05-14T08:28:08.078Z,9.6
2019-05-14T08:28:59.087Z,9.6
2019-05-14T08:29:49.956Z,9.6
2019-05-14T08:30:40.835Z,9.6
2019-05-14T08:31:31.700Z,9.6
2019-05-14T08:32:22.567Z,9.6
2019-05-14T08:33:13.470Z,9.6
2019-05-14T08:34:05.096Z,9.6
2019-05-14T08:34:58.114Z,9.6
2019-05-14T08:35:49.327Z,9.7
2019-05-14T08:36:40.198Z,9.7
2019-05-14T08:37:31.070Z,9.7
2019-05-14T08:38:21.966Z,9.7
2019-05-14T08:39:12.834Z,9.7
2019-05-14T08:40:03.708Z,9.7
2019-05-14T08:40:54.580Z,9.7
2019-05-14T08:41:55.653Z,9.8
2019-05-14T08:42:41.256Z,9.8
2019-05-14T08:43:32.162Z,9.8
2019-05-14T08:44:23.032Z,9.8
2019-05-14T08:45:14.116Z,9.8
2019-05-14T08:46:05.016Z,9.8
2019-05-14T08:46:58.339Z,9.8
2019-05-14T08:47:49.782Z,9.8
2019-05-14T08:48:40.696Z,9.8
2019-05-14T08:49:41.733Z,9.8
2019-05-14T08:50:28.069Z,9.8
2019-05-14T08:51:19.054Z,9.8
2019-05-14T08:52:09.933Z,9.8
2019-05-14T08:53:00.803Z,9.8
2019-05-14T08:53:51.704Z,9.8
2019-05-14T08:54:42.584Z,9.8
2019-05-14T08:55:33.454Z,9.8
2019-05-14T08:56:24.327Z,9.8
2019-05-14T08:57:15.327Z,9.8
2019-05-14T08:58:10.978Z,9.8
2019-05-14T08:59:02.098Z,9.8
2019-05-14T08:59:52.969Z,9.8
2019-05-14T09:00:43.833Z,9.9
2019-05-14T09:01:34.710Z,9.9
2019-05-14T09:02:25.577Z,9.9
2019-05-14T09:03:19.025Z,9.9
2019-05-14T09:04:10.152Z,9.9
2019-05-14T09:05:03.502Z,9.9
2019-05-14T09:05:58.370Z,9.9
2019-05-14T09:06:51.259Z,9.9
2019-05-14T09:07:42.131Z,9.9
2019-05-14T09:08:33.063Z,9.9
2019-05-14T09:09:23.939Z,9.9
2019-05-14T09:10:14.811Z,9.9
2019-05-14T09:11:05.685Z,9.9
2019-05-14T09:11:59.676Z,9.9
2019-05-14T09:12:50.706Z,9.9
2019-05-14T09:13:41.614Z,10
2019-05-14T09:14:32.492Z,10
2019-05-14T09:15:23.374Z,10
2019-05-14T09:16:14.250Z,10
2019-05-14T09:17:05.118Z,10.1
2019-05-14T09:17:55.996Z,10.1
2019-05-14T09:18:49.045Z,10.1
2019-05-14T09:19:56.183Z,10.1
2019-05-14T09:20:38.053Z,10.1
2019-05-14T09:21:29.605Z,10.1
2019-05-14T09:22:20.661Z,10.1
2019-05-14T09:23:11.537Z,10.1
2019-05-14T09:24:02.438Z,10.2
2019-05-14T09:24:53.328Z,10.2
2019-05-14T09:25:48.167Z,10.2
2019-05-14T09:26:40.003Z,10.3
2019-05-14T09:27:30.874Z,10.3
2019-05-14T09:28:21.764Z,10.3
2019-05-14T09:29:21.971Z,10.3
2019-05-14T09:30:09.600Z,10.3
2019-05-14T09:31:00.684Z,10.3
2019-05-14T09:31:51.557Z,10.3
2019-05-14T09:32:42.433Z,10.3
2019-05-14T09:33:33.301Z,10.3
2019-05-14T09:34:24.203Z,10.4
2019-05-14T09:35:15.075Z,10.4
2019-05-14T09:36:14.500Z,10.4
2019-05-14T09:37:01.755Z,10.4
2019-05-14T09:37:52.628Z,10.4
2019-05-14T09:38:43.544Z,10.4
2019-05-14T09:39:34.511Z,10.4
2019-05-14T09:40:25.388Z,10.4
2019-05-14T09:41:18.363Z,10.4
2019-05-14T09:42:09.422Z,10.4
2019-05-14T09:43:00.284Z,10.4
2019-05-14T09:43:51.153Z,10.4
2019-05-14T09:44:42.066Z,10.4
2019-05-14T09:45:32.933Z,10.4
2019-05-14T09:46:23.805Z,10.4
2019-05-14T09:47:14.670Z,10.4
2019-05-14T09:48:05.538Z,10.4
2019-05-14T09:48:58.758Z,10.4
2019-05-14T09:49:49.816Z,10.4
2019-05-14T09:50:40.688Z,10.4
2019-05-14T09:51:31.563Z,10.4
2019-05-14T09:52:22.437Z,10.5
2019-05-14T09:53:13.317Z,10.5
2019-05-14T09:54:04.185Z,10.5
2019-05-14T09:54:55.093Z,10.5
2019-05-14T09:55:45.959Z,10.5
2019-05-14T09:56:39.314Z,10.5
2019-05-14T09:57:30.389Z,10.6
2019-05-14T09:58:21.261Z,10.6
2019-05-14T09:59:12.133Z,10.6
2019-05-14T10:00:03.057Z,10.6
2019-05-14T10:00:53.937Z,10.6
2019-05-14T10:01:44.806Z,10.6
2019-05-14T10:02:35.675Z,10.6
2019-05-14T10:03:26.548Z,10.6
2019-05-14T10:04:17.415Z,10.6
2019-05-14T10:05:09.019Z,10.6
2019-05-14T10:06:00.099Z,10.6
2019-05-14T10:06:50.964Z,10.6
2019-05-14T10:07:41.832Z,10.7
2019-05-14T10:08:32.699Z,10.7
2019-05-14T10:09:23.589Z,10.7
2019-05-14T10:10:14.457Z,10.7
2019-05-14T10:11:05.375Z,10.7
2019-05-14T10:11:57.981Z,10.8
2019-05-14T10:12:53.570Z,10.8
2019-05-14T10:13:44.775Z,10.8
2019-05-14T10:14:35.644Z,10.8
2019-05-14T10:15:28.624Z,10.8
2019-05-14T10:16:19.658Z,10.8
2019-05-14T10:17:10.519Z,10.8
2019-05-14T10:18:01.406Z,10.8
2019-05-14T10:18:52.909Z,10.9
2019-05-14T10:19:43.892Z,10.9
2019-05-14T10:20:40.643Z,10.9
2019-05-14T10:21:30.601Z,10.9
2019-05-14T10:22:21.481Z,10.9
2019-05-14T10:23:12.347Z,10.9
2019-05-14T10:24:03.227Z,10.9
2019-05-14T10:24:54.102Z,10.9
2019-05-14T10:25:45.004Z,10.9
2019-05-14T10:26:35.876Z,10.9
2019-05-14T10:27:28.375Z,10.9
2019-05-14T10:28:19.388Z,10.9
2019-05-14T10:29:10.261Z,11
2019-05-14T10:30:01.129Z,11
2019-05-14T10:30:52.032Z,11
2019-05-14T10:31:42.902Z,11
2019-05-14T10:32:33.775Z,11
2019-05-14T10:33:24.644Z,11
2019-05-14T10:34:15.525Z,11
2019-05-14T10:35:08.447Z,11
2019-05-14T10:35:59.475Z,11.1
2019-05-14T10:36:50.346Z,11.1
2019-05-14T10:37:41.215Z,11.1
2019-05-14T10:38:32.087Z,11.1
2019-05-14T10:39:22.956Z,11.1
2019-05-14T10:40:13.827Z,11.1
2019-05-14T10:41:04.728Z,11.1
2019-05-14T10:41:55.598Z,11.1
2019-05-14T10:42:49.209Z,11.1
2019-05-14T10:43:40.291Z,11.1
2019-05-14T10:44:31.159Z,11.1
2019-05-14T10:45:22.031Z,11.1
2019-05-14T10:46:12.937Z,11.1
2019-05-14T10:47:03.812Z,11.1
2019-05-14T10:47:54.686Z,11.1
2019-05-14T10:48:45.554Z,11.1
2019-05-14T10:49:38.396Z,11.1
2019-05-14T10:50:29.503Z,11.1
2019-05-14T10:51:20.404Z,11.1
2019-05-14T10:52:11.264Z,11.1
2019-05-14T10:53:02.138Z,11.1
2019-05-14T10:53:53.013Z,11.1
2019-05-14T10:54:55.251Z,11.1
2019-05-14T10:55:39.691Z,11.1
2019-05-14T10:56:30.609Z,11.1
2019-05-14T10:57:21.476Z,11.1
2019-05-14T10:58:12.351Z,11.1
2019-05-14T10:59:03.223Z,11.1
2019-05-14T10:59:54.101Z,11.1
2019-05-14T11:00:44.972Z,11.1
2019-05-14T11:01:35.890Z,11.1
2019-05-14T11:02:28.990Z,11.1
2019-05-14T11:03:20.044Z,11.1
2019-05-14T11:04:10.925Z,11.1
2019-05-14T11:05:01.801Z,11.1
2019-05-14T11:05:52.670Z,11.2
2019-05-14T11:06:43.605Z,11.2
2019-05-14T11:07:34.477Z,11.2
2019-05-14T11:08:25.358Z,11.2
2019-05-14T11:09:18.047Z,11.3
2019-05-14T11:10:09.337Z,11.3
2019-05-14T11:11:03.556Z,11.3
2019-05-14T11:11:54.903Z,11.3
2019-05-14T11:12:45.777Z,11.3
2019-05-14T11:13:39.121Z,11.3
2019-05-14T11:14:31.627Z,11.3
2019-05-14T11:15:22.859Z,11.3
2019-05-14T11:16:13.727Z,11.3
2019-05-14T11:17:04.631Z,11.3
2019-05-14T11:17:55.495Z,11.3
2019-05-14T11:18:49.260Z,11.3
2019-05-14T11:19:40.527Z,11.4
2019-05-14T11:20:31.421Z,11.4
2019-05-14T11:21:26.276Z,11.4
2019-05-14T11:22:18.393Z,11.4
2019-05-14T11:23:09.446Z,11.4
2019-05-14T11:24:00.309Z,11.4
2019-05-14T11:24:51.183Z,11.4
2019-05-14T11:25:42.060Z,11.4
2019-05-14T11:26:32.924Z,11.4
2019-05-14T11:27:23.826Z,11.4
2019-05-14T11:28:14.699Z,11.4
2019-05-14T11:29:05.569Z,11.4
2019-05-14T11:29:58.582Z,11.4
2019-05-14T11:30:49.707Z,11.4
2019-05-14T11:31:40.590Z,11.4
2019-05-14T11:32:31.506Z,11.4
2019-05-14T11:33:22.374Z,11.4
2019-05-14T11:34:13.246Z,11.4
2019-05-14T11:35:04.118Z,11.4
2019-05-14T11:35:54.988Z,11.4
2019-05-14T11:36:45.863Z,11.4
2019-05-14T11:37:41.064Z,11.4
2019-05-14T11:38:37.106Z,11.4